Time;durP1;ratioP1;P1;durP2;ratioP2;P2;SDS_P1;SDS_P2;PMS_P1;PMS_P2;Temp;Humidity;BMP_temperature;BMP_pressure;BME280_temperature;BME280_humidity;BME280_pressure;Samples;Min_cycle;Max_cycle;Signal;HPM_P1;HPM_P2
2023/03/11 00:00:33;;;;;;;7.88;1.33;;;1.30;99.90;;;;;;4984118;28;20042;-90
2023/03/11 00:03:00;;;;;;;6.82;0.90;;;1.30;99.90;;;;;;4969642;28;20382;-89
2023/03/11 00:05:32;;;;;;;6.75;1.05;;;1.30;99.90;;;;;;4969556;28;20082;-89
2023/03/11 00:07:59;;;;;;;6.10;1.20;;;1.30;99.90;;;;;;4986246;28;20105;-89
2023/03/11 00:10:37;;;;;;;7.55;1.58;;;1.40;99.90;;;;;;4987942;28;20034;-89
2023/03/11 00:13:04;;;;;;;8.88;1.20;;;1.40;99.90;;;;;;4982055;28;20043;-89
2023/03/11 00:15:30;;;;;;;6.25;1.02;;;1.40;99.90;;;;;;4966217;28;20085;-89
2023/03/11 00:17:57;;;;;;;5.65;1.02;;;1.40;99.90;;;;;;4980179;28;20062;-89
2023/03/11 00:20:29;;;;;;;5.65;1.10;;;1.40;99.90;;;;;;4983217;28;20034;-89
2023/03/11 00:22:56;;;;;;;6.30;1.00;;;1.40;99.90;;;;;;4984300;28;20046;-89
2023/03/11 00:25:25;;;;;;;7.95;1.70;;;1.40;99.90;;;;;;4969456;28;20042;-88
2023/03/11 00:27:51;;;;;;;4.38;1.20;;;1.40;99.90;;;;;;4979022;28;20474;-89
2023/03/11 00:30:18;;;;;;;4.07;1.10;;;1.40;99.90;;;;;;4986085;28;20052;-88
2023/03/11 00:32:47;;;;;;;4.43;0.75;;;1.40;99.90;;;;;;4984329;28;20501;-88
2023/03/11 00:35:23;;;;;;;7.97;0.90;;;1.40;99.90;;;;;;4986004;28;20083;-88
2023/03/11 00:38:02;;;;;;;3.58;0.80;;;1.40;99.90;;;;;;4985765;28;20188;-88
2023/03/11 00:40:32;;;;;;;7.55;0.77;;;1.30;99.90;;;;;;4985024;28;20035;-88
2023/03/11 00:43:01;;;;;;;4.68;1.10;;;1.30;99.90;;;;;;4985455;28;20050;-88
2023/03/11 00:45:28;;;;;;;7.22;0.98;;;1.40;99.90;;;;;;4985681;28;20166;-88
2023/03/11 00:47:57;;;;;;;6.13;0.70;;;1.40;99.90;;;;;;4987618;28;20050;-88
2023/03/11 00:50:32;;;;;;;4.43;0.75;;;1.30;99.90;;;;;;4986152;28;20671;-88
2023/03/11 00:52:59;;;;;;;7.95;0.90;;;1.30;99.90;;;;;;4998828;28;20048;-89
2023/03/11 00:55:28;;;;;;;7.93;1.20;;;1.30;99.90;;;;;;4973729;28;20042;-88
2023/03/11 00:57:55;;;;;;;10.40;1.25;;;1.30;99.90;;;;;;4970449;28;20050;-88
2023/03/11 01:00:23;;;;;;;4.82;1.35;;;1.30;99.90;;;;;;4977744;28;20053;-88
2023/03/11 01:02:53;;;;;;;4.03;0.65;;;1.30;99.90;;;;;;4988988;28;20057;-89
2023/03/11 01:05:27;;;;;;;7.95;0.82;;;1.30;99.90;;;;;;4984296;28;20042;-88
2023/03/11 01:07:53;;;;;;;6.82;2.85;;;1.20;99.90;;;;;;4990282;28;20085;-88
2023/03/11 01:10:19;;;;;;;6.45;0.70;;;1.20;99.90;;;;;;4972216;28;20070;-88
2023/03/11 01:12:45;;;;;;;2.85;0.75;;;1.20;99.90;;;;;;4978439;28;20050;-88
2023/03/11 01:15:32;;;;;;;4.15;0.80;;;1.20;99.90;;;;;;4977225;28;20031;-88
2023/03/11 01:17:58;;;;;;;9.38;1.05;;;1.20;99.90;;;;;;4981799;28;20569;-87
2023/03/11 01:20:24;;;;;;;8.07;0.95;;;1.20;99.90;;;;;;4989474;28;20124;-87
2023/03/11 01:22:50;;;;;;;4.32;0.60;;;1.90;99.90;;;;;;4972769;28;20580;-88
2023/03/11 01:25:18;;;;;;;5.03;0.75;;;1.30;99.90;;;;;;4987743;28;20049;-88
2023/03/11 01:27:43;;;;;;;8.00;1.00;;;1.10;99.90;;;;;;4972338;28;20129;-88
2023/03/11 01:30:14;;;;;;;3.17;0.70;;;1.20;99.90;;;;;;4983082;28;20121;-87
2023/03/11 01:32:41;;;;;;;6.13;0.73;;;1.30;99.90;;;;;;4984247;28;20101;-88
2023/03/11 01:35:06;;;;;;;5.28;0.75;;;1.20;99.90;;;;;;4985598;28;20046;-88
2023/03/11 01:37:32;;;;;;;3.28;0.82;;;1.20;99.90;;;;;;4988019;28;20042;-88
2023/03/11 01:39:58;;;;;;;7.22;0.90;;;1.20;99.90;;;;;;4983138;28;20071;-87
2023/03/11 01:42:31;;;;;;;4.85;0.73;;;1.20;99.90;;;;;;4969368;28;20046;-87
2023/03/11 01:44:59;;;;;;;11.82;1.13;;;1.20;99.90;;;;;;4977623;28;20131;-86
2023/03/11 01:47:38;;;;;;;3.15;0.80;;;1.20;99.90;;;;;;5005388;28;20050;-87
2023/03/11 01:50:12;;;;;;;3.53;0.70;;;1.40;99.90;;;;;;4988452;28;20515;-88
2023/03/11 01:52:38;;;;;;;2.20;0.50;;;1.20;99.90;;;;;;4990323;28;20496;-88
2023/03/11 01:55:08;;;;;;;3.28;0.50;;;1.20;99.90;;;;;;4985134;28;20525;-87
2023/03/11 01:57:40;;;;;;;3.72;0.82;;;1.20;99.90;;;;;;4988034;28;20600;-87
2023/03/11 02:00:08;;;;;;;3.58;0.68;;;1.20;99.90;;;;;;4988223;28;20502;-87
2023/03/11 02:02:44;;;;;;;5.20;1.65;;;1.20;99.90;;;;;;4984095;28;20042;-87
2023/03/11 02:05:10;;;;;;;3.97;1.00;;;1.20;99.90;;;;;;5004640;28;20049;-87
2023/03/11 02:07:39;;;;;;;4.68;1.00;;;1.20;99.90;;;;;;4988317;28;20030;-87
2023/03/11 02:10:12;;;;;;;4.35;0.63;;;1.20;99.90;;;;;;4988983;28;20154;-87
2023/03/11 02:12:38;;;;;;;4.13;0.90;;;1.10;99.90;;;;;;4964753;28;20034;-87
2023/03/11 02:15:08;;;;;;;4.75;0.82;;;1.10;99.90;;;;;;4959441;28;20046;-87
2023/03/11 02:17:39;;;;;;;4.57;0.85;;;1.10;99.90;;;;;;4981504;28;20434;-87
2023/03/11 02:20:17;;;;;;;4.13;0.85;;;1.10;99.90;;;;;;4977714;28;20047;-87
2023/03/11 02:22:43;;;;;;;4.45;0.73;;;1.00;99.90;;;;;;4989657;28;20042;-87
2023/03/11 02:25:35;;;;;;;5.78;0.80;;;1.00;99.90;;;;;;4988392;28;20072;-87
2023/03/11 02:28:03;;;;;;;4.22;0.80;;;1.00;99.90;;;;;;4997404;28;20075;-87
2023/03/11 02:30:33;;;;;;;3.08;0.80;;;1.00;99.90;;;;;;4982731;28;20064;-87
2023/03/11 02:33:00;;;;;;;4.25;0.82;;;2.00;99.90;;;;;;4958584;28;20055;-87
2023/03/11 02:35:28;;;;;;;4.18;0.75;;;1.00;99.90;;;;;;4988123;28;20060;-86
2023/03/11 02:37:54;;;;;;;3.17;1.15;;;2.20;99.90;;;;;;4990469;28;20114;-87
2023/03/11 02:40:23;;;;;;;2.67;0.60;;;1.00;99.90;;;;;;4988667;28;20153;-86
2023/03/11 02:43:12;;;;;;;4.88;0.75;;;0.90;99.90;;;;;;4973356;28;20070;-87
2023/03/11 02:45:43;;;;;;;2.63;0.70;;;0.90;99.90;;;;;;4986611;28;20493;-87
2023/03/11 02:48:10;;;;;;;7.25;1.02;;;0.90;99.90;;;;;;4977591;28;20445;-87
2023/03/11 02:50:36;;;;;;;4.68;0.70;;;0.80;99.90;;;;;;4983259;28;20034;-87
2023/03/11 02:53:05;;;;;;;4.72;0.98;;;0.70;99.90;;;;;;4968519;28;20046;-87
2023/03/11 02:55:31;;;;;;;5.00;0.95;;;0.80;99.90;;;;;;4985111;28;20076;-87
2023/03/11 02:58:00;;;;;;;5.53;1.00;;;0.80;99.90;;;;;;4970768;28;20074;-88
2023/03/11 03:00:26;;;;;;;4.57;0.93;;;0.70;99.90;;;;;;4970472;28;20397;-87
2023/03/11 03:02:52;;;;;;;3.28;0.60;;;0.70;99.90;;;;;;4980408;28;20064;-87
2023/03/11 03:05:19;;;;;;;2.90;0.70;;;0.70;99.90;;;;;;4968165;28;20130;-87
2023/03/11 03:07:50;;;;;;;2.40;0.65;;;0.90;99.90;;;;;;4982340;28;20053;-87
2023/03/11 03:10:17;;;;;;;2.53;0.70;;;0.60;99.90;;;;;;4980378;28;20053;-87
2023/03/11 03:12:43;;;;;;;5.63;0.70;;;0.60;99.90;;;;;;4980060;28;20050;-88
2023/03/11 03:15:10;;;;;;;3.72;0.82;;;0.60;99.90;;;;;;4988366;28;20053;-87
2023/03/11 03:17:36;;;;;;;5.18;1.00;;;0.60;99.90;;;;;;4986692;28;20114;-87
2023/03/11 03:20:05;;;;;;;4.78;0.82;;;0.50;99.90;;;;;;4986270;28;20121;-87
2023/03/11 03:22:33;;;;;;;4.80;0.85;;;1.00;99.90;;;;;;4987548;28;20038;-88
2023/03/11 03:24:59;;;;;;;7.80;1.00;;;-0.30;99.90;;;;;;5000871;28;20435;-87
2023/03/11 03:27:25;;;;;;;2.90;0.73;;;0.50;99.90;;;;;;4986939;28;20041;-87
2023/03/11 03:29:53;;;;;;;3.78;0.90;;;0.40;99.90;;;;;;4976554;28;20448;-87
2023/03/11 03:32:19;;;;;;;5.05;0.80;;;0.40;99.90;;;;;;4974873;28;20422;-87
2023/03/11 03:34:44;;;;;;;3.33;0.70;;;0.40;99.90;;;;;;4985963;28;20042;-88
2023/03/11 03:37:10;;;;;;;2.90;0.70;;;0.30;99.90;;;;;;4984671;28;20034;-87
2023/03/11 03:39:36;;;;;;;5.07;0.80;;;0.30;99.90;;;;;;4980172;28;20098;-87
2023/03/11 03:42:02;;;;;;;2.47;0.70;;;0.30;99.90;;;;;;4984175;28;20093;-87
2023/03/11 03:44:30;;;;;;;2.65;0.70;;;0.20;99.90;;;;;;4971788;28;20049;-87
2023/03/11 03:46:58;;;;;;;4.13;0.80;;;0.30;99.90;;;;;;4978591;28;20549;-88
2023/03/11 03:49:24;;;;;;;4.85;1.45;;;0.20;99.90;;;;;;4987789;28;20046;-87
2023/03/11 03:51:50;;;;;;;3.78;0.90;;;0.20;99.90;;;;;;4985921;28;20073;-87
2023/03/11 03:54:15;;;;;;;3.00;0.88;;;0.10;99.90;;;;;;4970733;28;20050;-87
2023/03/11 03:56:41;;;;;;;11.73;1.00;;;0.10;99.90;;;;;;4984682;28;20046;-88
2023/03/11 03:59:07;;;;;;;1.65;0.77;;;0.00;99.90;;;;;;4986887;28;20049;-87
2023/03/11 04:01:36;;;;;;;3.83;1.20;;;0.00;99.90;;;;;;4984490;28;20038;-87
2023/03/11 04:04:01;;;;;;;2.95;0.60;;;-0.10;99.90;;;;;;4981329;28;20034;-87
2023/03/11 04:06:27;;;;;;;3.72;1.00;;;0.00;99.90;;;;;;4979050;28;20042;-87
2023/03/11 04:08:54;;;;;;;3.95;1.10;;;1.30;99.90;;;;;;4975714;28;20042;-88
2023/03/11 04:11:23;;;;;;;6.13;0.85;;;0.00;99.90;;;;;;4994511;28;20523;-87
2023/03/11 04:13:52;;;;;;;5.78;1.20;;;-0.10;99.90;;;;;;4982972;28;20070;-87
2023/03/11 04:16:20;;;;;;;3.10;0.80;;;-0.10;99.90;;;;;;4983756;28;20073;-87
2023/03/11 04:18:47;;;;;;;2.35;0.80;;;-0.10;99.90;;;;;;4985835;28;20696;-87
2023/03/11 04:21:18;;;;;;;4.28;1.08;;;-0.10;99.90;;;;;;4985131;28;20038;-87
2023/03/11 04:23:44;;;;;;;4.57;0.90;;;-0.20;99.90;;;;;;4984933;28;20092;-87
2023/03/11 04:26:10;;;;;;;4.53;0.95;;;-0.20;99.90;;;;;;4982845;28;20489;-88
2023/03/11 04:28:35;;;;;;;4.70;0.95;;;-0.20;99.90;;;;;;4984342;28;20132;-87
2023/03/11 04:31:01;;;;;;;4.15;0.90;;;-0.20;99.90;;;;;;4993409;28;20035;-87
2023/03/11 04:33:27;;;;;;;4.35;1.42;;;-0.20;99.90;;;;;;4989442;28;20516;-87
2023/03/11 04:35:55;;;;;;;3.40;0.80;;;-0.20;99.90;;;;;;4988435;28;20065;-87
2023/03/11 04:38:21;;;;;;;2.13;0.85;;;-0.20;99.90;;;;;;4994980;28;20052;-87
2023/03/11 04:40:50;;;;;;;5.90;1.02;;;-0.20;99.90;;;;;;4985029;28;20033;-87
2023/03/11 04:43:15;;;;;;;3.83;0.90;;;-1.20;99.90;;;;;;5006878;28;20107;-87
2023/03/11 04:45:44;;;;;;;6.55;0.90;;;-0.20;99.90;;;;;;4990269;28;20493;-87
2023/03/11 04:48:10;;;;;;;5.53;0.95;;;-0.20;99.90;;;;;;4990199;28;20405;-87
2023/03/11 04:50:37;;;;;;;2.53;1.02;;;-0.20;99.90;;;;;;5006475;28;20053;-87
2023/03/11 04:53:03;;;;;;;3.90;1.00;;;0.00;99.90;;;;;;5007201;28;20048;-87
2023/03/11 04:55:32;;;;;;;5.85;0.90;;;-0.20;99.90;;;;;;5013471;28;20129;-87
2023/03/11 04:57:57;;;;;;;4.05;1.13;;;-0.30;99.90;;;;;;4984966;28;20042;-87
2023/03/11 05:00:23;;;;;;;4.30;0.85;;;-0.30;99.90;;;;;;5002510;28;20049;-87
2023/03/11 05:02:49;;;;;;;1.67;0.80;;;-0.30;99.90;;;;;;4995727;28;20073;-87
2023/03/11 05:05:15;;;;;;;5.18;1.15;;;-0.30;99.90;;;;;;4995405;28;20099;-87
2023/03/11 05:07:41;;;;;;;6.28;0.85;;;-0.30;99.90;;;;;;5007431;28;20042;-86
2023/03/11 05:10:07;;;;;;;6.70;0.93;;;-0.30;99.90;;;;;;5011296;28;20075;-87
2023/03/11 05:12:33;;;;;;;6.30;0.98;;;-0.30;99.90;;;;;;5011461;28;20091;-87
2023/03/11 05:14:59;;;;;;;3.95;0.90;;;-0.30;99.90;;;;;;5004419;28;21052;-86
2023/03/11 05:17:24;;;;;;;3.42;0.68;;;-0.20;99.90;;;;;;5017564;28;20059;-87
2023/03/11 05:19:52;;;;;;;3.58;1.20;;;-0.30;99.90;;;;;;4969790;28;20050;-86
2023/03/11 05:22:18;;;;;;;3.17;1.08;;;-0.30;99.90;;;;;;5011110;28;20046;-87
2023/03/11 05:24:45;;;;;;;5.63;2.08;;;-0.30;99.90;;;;;;4992408;28;20512;-88
2023/03/11 05:27:18;;;;;;;4.05;0.70;;;-0.30;99.90;;;;;;5013566;28;20121;-86
2023/03/11 05:29:44;;;;;;;1.65;0.70;;;-0.40;99.90;;;;;;5005077;28;20093;-87
2023/03/11 05:32:11;;;;;;;4.57;1.10;;;-0.40;99.90;;;;;;5009465;28;20077;-87
2023/03/11 05:34:37;;;;;;;3.90;0.82;;;-0.40;99.90;;;;;;4995587;28;20034;-86
2023/03/11 05:37:03;;;;;;;2.85;0.90;;;-1.10;99.90;;;;;;5013301;28;20060;-87
2023/03/11 05:39:29;;;;;;;3.22;0.98;;;-0.40;99.90;;;;;;5009361;28;20068;-85
2023/03/11 05:41:57;;;;;;;5.38;1.00;;;-0.40;99.90;;;;;;4971789;28;20152;-87
2023/03/11 05:44:23;;;;;;;3.78;0.80;;;-0.50;99.90;;;;;;5002981;28;20548;-87
2023/03/11 05:46:49;;;;;;;2.53;0.85;;;-0.50;99.90;;;;;;4987827;28;20452;-88
2023/03/11 05:49:14;;;;;;;3.63;0.95;;;-0.50;99.90;;;;;;5005463;28;20038;-87
2023/03/11 05:51:40;;;;;;;3.50;0.75;;;-0.50;99.90;;;;;;4999353;28;20559;-87
2023/03/11 05:54:13;;;;;;;5.20;0.77;;;-0.50;99.90;;;;;;4985865;28;20049;-87
2023/03/11 05:56:42;;;;;;;3.17;0.82;;;-0.50;99.90;;;;;;5006543;28;20509;-87
2023/03/11 05:59:09;;;;;;;3.97;0.90;;;-0.30;99.90;;;;;;4980258;28;20037;-87
2023/03/11 06:01:35;;;;;;;3.35;1.45;;;-0.50;99.90;;;;;;5003018;28;20251;-87
2023/03/11 06:04:01;;;;;;;2.78;0.82;;;-0.50;99.90;;;;;;4986649;28;20057;-87
2023/03/11 06:06:27;;;;;;;2.70;0.90;;;-0.50;99.90;;;;;;5003770;28;20041;-88
2023/03/11 06:08:53;;;;;;;2.92;0.93;;;-0.40;99.90;;;;;;4974828;28;20038;-87
2023/03/11 06:11:20;;;;;;;4.43;1.00;;;0.70;99.90;;;;;;4982651;28;20069;-87
2023/03/11 06:13:46;;;;;;;3.70;1.00;;;-0.50;99.90;;;;;;4997521;28;20042;-87
2023/03/11 06:16:14;;;;;;;3.70;0.82;;;-0.40;99.90;;;;;;4973054;28;20058;-87
2023/03/11 06:18:39;;;;;;;4.03;0.93;;;-0.40;99.90;;;;;;4999959;28;20069;-87
2023/03/11 06:21:07;;;;;;;9.20;1.83;;;-0.40;99.90;;;;;;5000469;28;20042;-87
2023/03/11 06:23:33;;;;;;;3.85;0.73;;;-0.40;99.90;;;;;;4983808;28;20057;-87
2023/03/11 06:26:01;;;;;;;4.25;0.90;;;-0.50;99.90;;;;;;5001689;28;20057;-87
2023/03/11 06:28:27;;;;;;;4.20;0.85;;;-0.50;99.90;;;;;;4980195;28;20128;-88
2023/03/11 06:30:55;;;;;;;3.85;0.93;;;-0.50;99.90;;;;;;5002156;28;20037;-88
2023/03/11 06:33:24;;;;;;;5.95;1.00;;;-0.50;99.90;;;;;;5000233;28;20539;-87
2023/03/11 06:35:57;;;;;;;3.15;0.90;;;-0.50;99.90;;;;;;4977117;28;20050;-87
2023/03/11 06:38:23;;;;;;;3.65;0.95;;;-0.50;99.90;;;;;;4991193;28;20034;-87
2023/03/11 06:40:49;;;;;;;4.03;1.00;;;-0.50;99.90;;;;;;4976808;28;20057;-87
2023/03/11 06:43:15;;;;;;;7.55;1.10;;;-0.50;99.90;;;;;;4987084;28;20555;-87
2023/03/11 06:45:41;;;;;;;3.92;1.00;;;-0.50;99.90;;;;;;4987595;28;20104;-87
2023/03/11 06:48:07;;;;;;;5.57;1.35;;;-0.50;99.90;;;;;;4978518;28;20045;-87
2023/03/11 06:50:33;;;;;;;7.60;1.30;;;0.50;99.90;;;;;;4995509;28;20039;-87
2023/03/11 06:53:05;;;;;;;2.47;0.75;;;-0.50;99.90;;;;;;4983658;28;20069;-87
2023/03/11 06:55:31;;;;;;;3.72;0.90;;;-0.50;99.90;;;;;;4982097;28;20056;-86
2023/03/11 06:57:56;;;;;;;3.28;1.00;;;-0.50;99.90;;;;;;4982720;28;20034;-87
2023/03/11 07:00:25;;;;;;;4.00;1.05;;;-0.40;99.90;;;;;;4987976;28;20057;-87
2023/03/11 07:02:51;;;;;;;5.30;1.13;;;-0.40;99.90;;;;;;4996912;28;20037;-88
2023/03/11 07:05:17;;;;;;;4.22;1.20;;;-0.40;99.90;;;;;;4994401;28;20402;-88
2023/03/11 07:07:42;;;;;;;4.00;1.20;;;-0.40;99.90;;;;;;4986568;28;20117;-87
2023/03/11 07:10:09;;;;;;;7.22;1.40;;;-0.40;99.90;;;;;;5002799;28;20038;-88
2023/03/11 07:12:35;;;;;;;4.80;1.02;;;-0.40;99.90;;;;;;4985291;28;20034;-91
2023/03/11 07:15:00;;;;;;;4.75;1.50;;;-0.40;99.90;;;;;;4986028;28;20054;-90
2023/03/11 07:17:27;;;;;;;6.82;1.55;;;0.70;99.90;;;;;;4993493;28;20103;-90
2023/03/11 07:19:53;;;;;;;7.18;1.80;;;-0.30;99.90;;;;;;4984785;28;20095;-89
2023/03/11 07:22:19;;;;;;;3.92;1.15;;;-0.30;99.90;;;;;;4983941;28;20050;-89
2023/03/11 07:24:46;;;;;;;3.40;1.42;;;-0.30;99.90;;;;;;4992156;28;20042;-90
2023/03/11 07:27:12;;;;;;;6.95;1.23;;;-0.20;99.90;;;;;;4994727;28;20538;-89
2023/03/11 07:29:37;;;;;;;3.05;1.27;;;-0.10;99.90;;;;;;5008445;28;20030;-89
2023/03/11 07:32:05;;;;;;;5.00;1.35;;;-0.20;99.90;;;;;;4976173;28;20089;-89
2023/03/11 07:34:31;;;;;;;7.45;1.48;;;-0.10;99.90;;;;;;4990147;28;20124;-91
2023/03/11 07:36:56;;;;;;;4.18;1.20;;;-0.10;99.90;;;;;;4985884;28;20042;-90
2023/03/11 07:39:22;;;;;;;3.17;0.95;;;-0.10;99.90;;;;;;4979968;28;20118;-91
2023/03/11 07:41:48;;;;;;;4.18;0.90;;;0.00;99.90;;;;;;4984970;28;20042;-88
2023/03/11 07:44:15;;;;;;;4.38;1.17;;;0.00;99.90;;;;;;4989243;28;20069;-89
2023/03/11 07:46:41;;;;;;;5.38;1.10;;;0.00;99.90;;;;;;5004190;28;20038;-91
2023/03/11 07:49:07;;;;;;;6.38;1.17;;;0.00;99.90;;;;;;4988604;28;20034;-88
2023/03/11 07:51:35;;;;;;;4.03;1.20;;;0.00;99.90;;;;;;4973549;28;20030;-90
2023/03/11 07:54:01;;;;;;;3.75;2.10;;;0.10;99.90;;;;;;4982930;28;20100;-90
2023/03/11 07:56:29;;;;;;;7.90;1.92;;;0.10;99.90;;;;;;4985295;28;20038;-90
2023/03/11 07:58:57;;;;;;;4.68;1.13;;;0.10;99.90;;;;;;4977561;28;20042;-89
2023/03/11 08:01:25;;;;;;;6.32;1.40;;;0.10;99.90;;;;;;4984283;28;20101;-87
2023/03/11 08:03:57;;;;;;;4.72;1.13;;;0.10;99.90;;;;;;4983762;28;20037;-88
2023/03/11 08:06:30;;;;;;;5.65;2.65;;;0.20;99.90;;;;;;4984687;28;20474;-89
2023/03/11 08:08:56;;;;;;;5.78;1.83;;;0.20;99.90;;;;;;4970282;28;20038;-89
2023/03/11 08:11:22;;;;;;;3.83;1.00;;;0.20;99.90;;;;;;4956994;28;20516;-90
2023/03/11 08:13:49;;;;;;;5.45;1.20;;;0.20;99.90;;;;;;4999074;28;20031;-90
2023/03/11 08:16:17;;;;;;;3.20;0.98;;;0.20;99.90;;;;;;4969876;28;20176;-89
2023/03/11 08:18:43;;;;;;;6.57;1.33;;;0.20;99.90;;;;;;4994479;28;20489;-89
2023/03/11 08:21:13;;;;;;;6.93;1.40;;;0.20;99.90;;;;;;4988722;28;20042;-90
2023/03/11 08:23:39;;;;;;;5.60;1.10;;;0.30;99.90;;;;;;4989733;28;20042;-90
2023/03/11 08:26:06;;;;;;;6.72;1.10;;;0.30;99.90;;;;;;4977048;28;20038;-90
2023/03/11 08:28:32;;;;;;;3.08;1.05;;;0.30;99.90;;;;;;4970915;28;20117;-90
2023/03/11 08:30:58;;;;;;;4.22;1.13;;;0.40;99.90;;;;;;4985615;28;20114;-90
2023/03/11 08:33:24;;;;;;;6.50;1.13;;;0.40;99.90;;;;;;4997727;28;20054;-89
2023/03/11 08:35:49;;;;;;;3.65;1.10;;;0.40;99.90;;;;;;4987895;28;20054;-89
2023/03/11 08:38:15;;;;;;;4.70;0.90;;;0.50;99.90;;;;;;4975643;28;20065;-89
2023/03/11 08:40:40;;;;;;;2.78;0.88;;;0.50;99.90;;;;;;4975037;28;20528;-89
2023/03/11 08:43:06;;;;;;;3.72;1.30;;;0.60;99.90;;;;;;4980994;28;20042;-89
2023/03/11 08:45:32;;;;;;;5.63;1.00;;;1.50;99.90;;;;;;5004303;28;20507;-90
2023/03/11 08:47:58;;;;;;;4.78;1.13;;;0.60;99.90;;;;;;5001782;28;20042;-90
2023/03/11 08:50:24;;;;;;;5.05;0.95;;;0.60;99.90;;;;;;4979915;28;20414;-90
2023/03/11 08:52:50;;;;;;;8.82;1.15;;;0.70;99.90;;;;;;4991165;28;20092;-89
2023/03/11 08:55:23;;;;;;;4.75;1.20;;;0.70;99.90;;;;;;4983874;28;20045;-88
2023/03/11 08:57:58;;;;;;;7.28;1.13;;;0.70;99.90;;;;;;4988185;28;20049;-90
2023/03/11 09:00:27;;;;;;;9.52;1.25;;;0.80;99.90;;;;;;4975113;28;20073;-90
2023/03/11 09:02:54;;;;;;;5.22;1.13;;;0.80;99.90;;;;;;5002165;28;20037;-90
2023/03/11 09:05:20;;;;;;;4.72;1.15;;;0.90;99.90;;;;;;4966879;28;20034;-90
2023/03/11 09:07:45;;;;;;;3.40;1.50;;;0.90;99.90;;;;;;4991264;28;20406;-90
2023/03/11 09:10:17;;;;;;;6.30;1.48;;;1.30;99.90;;;;;;4986307;28;20092;-90
2023/03/11 09:12:43;;;;;;;5.40;1.02;;;1.00;99.90;;;;;;4982944;28;20568;-91
2023/03/11 09:15:09;;;;;;;4.40;0.85;;;1.10;99.90;;;;;;4991632;28;20128;-91
2023/03/11 09:17:35;;;;;;;9.55;1.10;;;1.20;99.90;;;;;;5002107;28;20054;-90
2023/03/11 09:20:04;;;;;;;7.45;1.40;;;1.30;99.90;;;;;;4980912;28;20034;-90
2023/03/11 09:22:38;;;;;;;6.57;1.77;;;1.80;99.90;;;;;;4990807;28;20491;-92
2023/03/11 09:25:05;;;;;;;4.15;1.10;;;1.40;99.90;;;;;;4984342;28;20077;-90
2023/03/11 09:27:30;;;;;;;6.07;1.65;;;1.60;99.90;;;;;;4985915;28;20045;-91
2023/03/11 09:29:56;;;;;;;5.32;1.02;;;1.30;99.90;;;;;;5001433;28;20451;-89
2023/03/11 09:32:25;;;;;;;4.07;1.00;;;1.90;99.90;;;;;;4978427;28;20046;-91
2023/03/11 09:34:56;;;;;;;10.25;1.33;;;2.00;99.90;;;;;;4978480;28;20455;-91
2023/03/11 09:37:22;;;;;;;5.10;1.20;;;2.10;99.90;;;;;;4987728;28;20430;-91
2023/03/11 09:39:48;;;;;;;5.22;1.10;;;2.20;99.90;;;;;;5006939;28;20041;-90
2023/03/11 09:42:49;;;;;;;6.88;1.33;;;2.40;99.90;;;;;;4980529;28;20765;-90
2023/03/11 09:45:23;;;;;;;9.50;1.40;;;2.60;99.90;;;;;;5006456;28;20120;-93
2023/03/11 09:48:09;;;;;;;8.63;1.13;;;2.80;99.90;;;;;;5005989;28;20041;-96
2023/03/11 09:50:54;;;;;;;7.82;1.13;;;3.00;99.90;;;;;;4992856;28;20140;-90
2023/03/11 09:53:37;;;;;;;8.88;1.25;;;3.20;99.90;;;;;;4993334;28;20042;-91
2023/03/11 09:56:25;;;;;;;4.05;1.00;;;3.30;99.90;;;;;;5004224;28;20412;-91
2023/03/11 09:59:13;;;;;;;5.38;1.00;;;3.50;99.90;;;;;;4981733;28;20141;-91
2023/03/11 10:01:42;;;;;;;8.90;1.30;;;3.70;99.90;;;;;;4985372;28;20062;-91
2023/03/11 10:04:34;;;;;;;2.05;0.80;;;3.80;99.90;;;;;;5001310;28;20074;-91
2023/03/11 10:07:05;;;;;;;7.10;1.10;;;3.90;99.90;;;;;;4989646;28;20056;-91
2023/03/11 10:09:42;;;;;;;9.98;1.27;;;4.00;99.90;;;;;;4983110;28;20038;-91
2023/03/11 10:12:14;;;;;;;5.38;0.90;;;4.00;99.90;;;;;;5000722;28;20065;-90
2023/03/11 10:14:48;;;;;;;3.83;0.80;;;4.10;99.90;;;;;;4982691;28;20081;-85
2023/03/11 10:17:27;;;;;;;6.47;1.05;;;4.20;99.90;;;;;;4998514;28;20041;-90
2023/03/11 10:19:58;;;;;;;8.65;1.30;;;4.30;99.90;;;;;;4999427;28;20042;-89
2023/03/11 10:22:31;;;;;;;7.28;1.05;;;4.40;99.90;;;;;;4983822;28;20705;-88
2023/03/11 10:25:21;;;;;;;4.93;1.13;;;4.50;99.90;;;;;;4965886;28;20101;-88
2023/03/11 10:28:04;;;;;;;9.10;1.08;;;4.70;99.90;;;;;;5004536;28;20028;-88
2023/03/11 10:30:43;;;;;;;5.07;1.08;;;4.80;99.90;;;;;;4987667;28;20512;-89
2023/03/11 10:33:34;;;;;;;5.05;0.90;;;4.90;99.90;;;;;;4994351;28;20131;-86
2023/03/11 10:36:05;;;;;;;3.13;0.93;;;5.00;99.90;;;;;;4969684;28;20433;-85
2023/03/11 10:38:41;;;;;;;5.60;0.90;;;5.00;99.90;;;;;;4964980;28;20256;-86
2023/03/11 10:41:32;;;;;;;4.78;1.00;;;5.00;99.90;;;;;;4945800;28;21746;-85
2023/03/11 10:44:28;;;;;;;9.27;1.10;;;5.20;99.90;;;;;;4956675;28;20561;-84
2023/03/11 10:46:54;;;;;;;5.22;1.10;;;5.30;99.90;;;;;;4967141;28;20046;-85
2023/03/11 10:49:19;;;;;;;7.57;1.63;;;5.40;99.90;;;;;;4951089;28;20229;-85
2023/03/11 10:51:50;;;;;;;6.68;1.20;;;5.50;99.90;;;;;;4982870;28;20042;-84
2023/03/11 10:54:28;;;;;;;9.65;1.55;;;5.50;99.90;;;;;;4984816;28;20482;-87
2023/03/11 10:57:03;;;;;;;3.97;0.90;;;5.60;99.90;;;;;;4967645;28;20047;-85
2023/03/11 10:59:45;;;;;;;4.65;1.05;;;5.60;99.90;;;;;;4966863;28;20521;-85
2023/03/11 11:02:32;;;;;;;6.05;1.25;;;5.70;99.90;;;;;;4974787;28;20038;-86
2023/03/11 11:05:16;;;;;;;3.35;1.35;;;5.80;99.90;;;;;;4947109;28;20049;-89
2023/03/11 11:08:03;;;;;;;7.90;1.10;;;5.90;99.90;;;;;;4975108;28;20039;-90
2023/03/11 11:10:30;;;;;;;4.68;1.10;;;5.90;99.90;;;;;;4958982;28;20050;-91
2023/03/11 11:12:59;;;;;;;4.88;1.42;;;7.00;99.90;;;;;;4983554;28;20120;-91
2023/03/11 11:15:31;;;;;;;5.88;1.02;;;5.90;99.90;;;;;;4963360;28;20050;-89
2023/03/11 11:18:16;;;;;;;6.05;1.50;;;5.90;99.90;;;;;;4975129;28;20050;-89
2023/03/11 11:21:07;;;;;;;7.50;1.20;;;6.30;99.90;;;;;;4970253;28;20038;-89
2023/03/11 11:23:48;;;;;;;5.22;1.00;;;5.90;99.90;;;;;;4953943;28;20474;-91
2023/03/11 11:26:25;;;;;;;6.75;1.23;;;5.90;99.90;;;;;;4981958;28;20046;-94
2023/03/11 11:29:09;;;;;;;4.20;1.20;;;5.90;99.90;;;;;;4956789;28;20038;-91
2023/03/11 11:31:36;;;;;;;4.88;1.27;;;6.10;99.90;;;;;;4967170;28;20042;-91
2023/03/11 11:34:05;;;;;;;3.70;0.93;;;6.10;99.90;;;;;;4994595;28;20046;-92
2023/03/11 11:36:37;;;;;;;10.90;1.50;;;6.20;99.90;;;;;;4999945;28;20042;-86
2023/03/11 11:39:15;;;;;;;3.90;0.93;;;6.30;99.90;;;;;;4998909;28;20078;-86
2023/03/11 11:41:42;;;;;;;2.80;0.90;;;6.40;99.90;;;;;;4978518;28;20079;-90
2023/03/11 11:44:14;;;;;;;5.95;1.10;;;6.40;99.90;;;;;;4985435;28;20038;-88
2023/03/11 11:46:46;;;;;;;6.45;1.00;;;6.50;99.90;;;;;;4989793;28;20049;-89
2023/03/11 11:49:26;;;;;;;4.35;1.00;;;6.50;99.90;;;;;;4967422;28;20041;-89
2023/03/11 11:52:02;;;;;;;2.65;0.68;;;6.60;99.90;;;;;;4997672;28;20041;-88
2023/03/11 11:54:34;;;;;;;4.78;1.02;;;6.60;99.90;;;;;;4982640;28;20431;-86
2023/03/11 11:57:07;;;;;;;3.95;1.05;;;6.70;99.90;;;;;;4981651;28;20193;-89
2023/03/11 11:59:33;;;;;;;4.22;0.85;;;6.60;99.90;;;;;;4981089;28;20076;-87
2023/03/11 12:02:23;;;;;;;5.80;1.30;;;6.60;99.90;;;;;;4986490;28;20045;-88
2023/03/11 12:05:09;;;;;;;5.70;0.93;;;6.50;99.90;;;;;;4973441;28;20258;-88
2023/03/11 12:08:15;;;;;;;5.40;1.10;;;6.40;99.90;;;;;;4966998;28;20033;-88
2023/03/11 12:10:57;;;;;;;5.65;0.90;;;6.30;99.90;;;;;;5006927;28;20232;-89
2023/03/11 12:13:48;;;;;;;3.85;0.80;;;6.30;99.90;;;;;;4997905;28;20038;-89
2023/03/11 12:16:19;;;;;;;4.13;0.77;;;6.10;99.90;;;;;;4996925;28;20038;-85
2023/03/11 12:18:51;;;;;;;6.20;0.82;;;6.10;99.90;;;;;;5006888;28;20088;-84
2023/03/11 12:21:28;;;;;;;3.50;0.80;;;6.10;99.90;;;;;;4987092;28;20049;-89
2023/03/11 12:24:15;;;;;;;2.75;0.88;;;6.20;99.90;;;;;;4990319;28;20516;-86
2023/03/11 12:26:44;;;;;;;3.17;0.70;;;6.30;99.90;;;;;;4988408;28;20093;-86
2023/03/11 12:29:34;;;;;;;4.55;0.80;;;6.40;99.90;;;;;;4985228;28;20475;-86
2023/03/11 12:32:01;;;;;;;4.20;0.68;;;6.40;99.90;;;;;;5007763;28;20045;-86
2023/03/11 12:34:28;;;;;;;4.93;0.88;;;6.80;99.90;;;;;;4985471;28;20053;-86
2023/03/11 12:36:59;;;;;;;2.95;0.60;;;6.30;99.90;;;;;;5002574;28;20121;-86
2023/03/11 12:39:31;;;;;;;3.00;0.60;;;6.30;99.90;;;;;;4980569;28;20460;-86
2023/03/11 12:42:19;;;;;;;8.93;0.85;;;6.20;99.90;;;;;;5006514;28;20041;-85
2023/03/11 12:44:46;;;;;;;2.95;0.70;;;6.20;99.90;;;;;;4966023;28;20054;-86
2023/03/11 12:47:27;;;;;;;4.20;0.70;;;6.20;99.90;;;;;;4974490;28;20370;-86
2023/03/11 12:50:31;;;;;;;4.20;0.65;;;6.20;99.90;;;;;;4986980;28;20480;-85
2023/03/11 12:52:56;;;;;;;5.15;0.90;;;6.10;99.90;;;;;;5003971;28;20042;-87
2023/03/11 12:55:28;;;;;;;6.00;0.77;;;6.10;99.90;;;;;;4970221;28;20035;-89
2023/03/11 12:58:00;;;;;;;4.70;0.80;;;6.10;99.90;;;;;;4991151;28;20049;-89
2023/03/11 13:00:35;;;;;;;5.30;0.70;;;6.10;99.90;;;;;;4987813;28;20046;-87
2023/03/11 13:03:09;;;;;;;5.53;2.22;;;6.10;99.90;;;;;;4988300;28;20500;-88
2023/03/11 13:05:49;;;;;;;;;;;6.20;99.90;;;;;;4991509;28;20038;-88
2023/03/11 13:08:41;;;;;;;4.30;2.72;;;6.20;99.90;;;;;;4990722;28;19979;-88
2023/03/11 13:11:25;;;;;;;3.75;1.35;;;6.30;99.90;;;;;;5001369;28;20130;-87